sensor_id;sensor_type;location;lat;lon;timestamp;P1;durP1;ratioP1;P2;durP2;ratioP2
51556;SDS011;38766;53.194;5.532;2023-07-22T00:02:24;5.00;;;1.70;;
51556;SDS011;38766;53.194;5.532;2023-07-22T00:04:50;3.30;;;1.58;;
51556;SDS011;38766;53.194;5.532;2023-07-22T00:07:20;4.45;;;1.75;;
51556;SDS011;38766;53.194;5.532;2023-07-22T00:09:45;3.25;;;1.88;;
51556;SDS011;38766;53.194;5.532;2023-07-22T00:12:11;5.10;;;1.67;;
51556;SDS011;38766;53.194;5.532;2023-07-22T00:14:39;3.60;;;1.63;;
51556;SDS011;38766;53.194;5.532;2023-07-22T00:17:06;5.13;;;1.90;;
51556;SDS011;38766;53.194;5.532;2023-07-22T00:19:32;3.45;;;1.50;;
51556;SDS011;38766;53.194;5.532;2023-07-22T00:21:59;2.55;;;1.33;;
51556;SDS011;38766;53.194;5.532;2023-07-22T00:24:25;2.22;;;1.83;;
51556;SDS011;38766;53.194;5.532;2023-07-22T00:26:50;2.67;;;1.60;;
51556;SDS011;38766;53.194;5.532;2023-07-22T00:29:16;5.03;;;2.35;;
51556;SDS011;38766;53.194;5.532;2023-07-22T00:31:42;2.78;;;1.70;;
51556;SDS011;38766;53.194;5.532;2023-07-22T00:34:07;5.53;;;1.70;;
51556;SDS011;38766;53.194;5.532;2023-07-22T00:36:34;4.40;;;1.70;;
51556;SDS011;38766;53.194;5.532;2023-07-22T00:38:59;4.80;;;1.63;;
51556;SDS011;38766;53.194;5.532;2023-07-22T00:41:26;2.17;;;1.60;;
51556;SDS011;38766;53.194;5.532;2023-07-22T00:43:52;3.70;;;1.88;;
51556;SDS011;38766;53.194;5.532;2023-07-22T00:46:18;4.53;;;1.92;;
51556;SDS011;38766;53.194;5.532;2023-07-22T00:48:43;2.30;;;1.60;;
51556;SDS011;38766;53.194;5.532;2023-07-22T00:51:13;2.95;;;1.60;;
51556;SDS011;38766;53.194;5.532;2023-07-22T00:53:39;3.65;;;1.77;;
51556;SDS011;38766;53.194;5.532;2023-07-22T00:56:05;2.17;;;1.48;;
51556;SDS011;38766;53.194;5.532;2023-07-22T00:58:31;1.50;;;1.40;;
51556;SDS011;38766;53.194;5.532;2023-07-22T01:00:57;3.40;;;1.58;;
51556;SDS011;38766;53.194;5.532;2023-07-22T01:03:23;2.88;;;1.70;;
51556;SDS011;38766;53.194;5.532;2023-07-22T01:05:50;3.15;;;1.55;;
51556;SDS011;38766;53.194;5.532;2023-07-22T01:08:17;6.20;;;1.88;;
51556;SDS011;38766;53.194;5.532;2023-07-22T01:10:43;2.85;;;1.70;;
51556;SDS011;38766;53.194;5.532;2023-07-22T01:13:09;2.65;;;1.88;;
51556;SDS011;38766;53.194;5.532;2023-07-22T01:15:34;2.78;;;1.90;;
51556;SDS011;38766;53.194;5.532;2023-07-22T01:18:02;3.70;;;1.50;;
51556;SDS011;38766;53.194;5.532;2023-07-22T01:20:29;3.53;;;1.85;;
51556;SDS011;38766;53.194;5.532;2023-07-22T01:22:55;2.58;;;1.60;;
51556;SDS011;38766;53.194;5.532;2023-07-22T01:25:22;2.47;;;1.80;;
51556;SDS011;38766;53.194;5.532;2023-07-22T01:27:51;4.70;;;1.83;;
51556;SDS011;38766;53.194;5.532;2023-07-22T01:30:17;3.40;;;2.15;;
51556;SDS011;38766;53.194;5.532;2023-07-22T01:32:44;3.95;;;2.30;;
51556;SDS011;38766;53.194;5.532;2023-07-22T01:35:11;3.17;;;1.88;;
51556;SDS011;38766;53.194;5.532;2023-07-22T01:37:37;3.47;;;2.03;;
51556;SDS011;38766;53.194;5.532;2023-07-22T01:40:03;2.78;;;1.90;;
51556;SDS011;38766;53.194;5.532;2023-07-22T01:42:38;5.03;;;2.05;;
51556;SDS011;38766;53.194;5.532;2023-07-22T01:45:05;4.82;;;2.25;;
51556;SDS011;38766;53.194;5.532;2023-07-22T01:47:33;4.20;;;2.08;;
51556;SDS011;38766;53.194;5.532;2023-07-22T01:50:02;5.88;;;2.03;;
51556;SDS011;38766;53.194;5.532;2023-07-22T01:52:29;4.13;;;2.40;;
51556;SDS011;38766;53.194;5.532;2023-07-22T01:54:55;4.88;;;2.30;;
51556;SDS011;38766;53.194;5.532;2023-07-22T01:57:23;4.47;;;2.17;;
51556;SDS011;38766;53.194;5.532;2023-07-22T01:59:49;4.07;;;2.25;;
51556;SDS011;38766;53.194;5.532;2023-07-22T02:02:15;5.05;;;2.33;;
51556;SDS011;38766;53.194;5.532;2023-07-22T02:04:41;3.83;;;2.10;;
51556;SDS011;38766;53.194;5.532;2023-07-22T02:07:09;3.70;;;2.88;;
51556;SDS011;38766;53.194;5.532;2023-07-22T02:09:35;3.33;;;2.45;;
51556;SDS011;38766;53.194;5.532;2023-07-22T02:12:01;4.45;;;2.70;;
51556;SDS011;38766;53.194;5.532;2023-07-22T02:14:27;5.97;;;2.40;;
51556;SDS011;38766;53.194;5.532;2023-07-22T02:16:53;5.70;;;2.50;;
51556;SDS011;38766;53.194;5.532;2023-07-22T02:19:18;3.72;;;2.38;;
51556;SDS011;38766;53.194;5.532;2023-07-22T02:21:44;5.28;;;2.90;;
51556;SDS011;38766;53.194;5.532;2023-07-22T02:24:14;6.78;;;2.72;;
51556;SDS011;38766;53.194;5.532;2023-07-22T02:26:40;4.03;;;2.88;;
51556;SDS011;38766;53.194;5.532;2023-07-22T02:29:05;7.05;;;3.20;;
51556;SDS011;38766;53.194;5.532;2023-07-22T02:31:31;6.07;;;3.15;;
51556;SDS011;38766;53.194;5.532;2023-07-22T02:33:57;4.15;;;2.80;;
51556;SDS011;38766;53.194;5.532;2023-07-22T02:36:22;3.55;;;2.63;;
51556;SDS011;38766;53.194;5.532;2023-07-22T02:38:48;5.40;;;3.20;;
51556;SDS011;38766;53.194;5.532;2023-07-22T02:41:14;6.50;;;3.00;;
51556;SDS011;38766;53.194;5.532;2023-07-22T02:43:39;6.35;;;3.15;;
51556;SDS011;38766;53.194;5.532;2023-07-22T02:46:05;10.32;;;3.75;;
51556;SDS011;38766;53.194;5.532;2023-07-22T02:48:33;5.80;;;3.65;;
51556;SDS011;38766;53.194;5.532;2023-07-22T02:51:03;5.95;;;3.25;;
51556;SDS011;38766;53.194;5.532;2023-07-22T02:53:36;5.10;;;3.42;;
51556;SDS011;38766;53.194;5.532;2023-07-22T02:56:02;6.93;;;3.50;;
51556;SDS011;38766;53.194;5.532;2023-07-22T02:58:29;7.20;;;3.92;;
51556;SDS011;38766;53.194;5.532;2023-07-22T03:00:54;8.05;;;3.88;;
51556;SDS011;38766;53.194;5.532;2023-07-22T03:03:21;6.03;;;3.90;;
51556;SDS011;38766;53.194;5.532;2023-07-22T03:05:49;10.77;;;4.13;;
51556;SDS011;38766;53.194;5.532;2023-07-22T03:08:15;5.43;;;3.58;;
51556;SDS011;38766;53.194;5.532;2023-07-22T03:10:44;5.13;;;3.70;;
51556;SDS011;38766;53.194;5.532;2023-07-22T03:13:16;6.22;;;3.33;;
51556;SDS011;38766;53.194;5.532;2023-07-22T03:15:42;6.72;;;4.47;;
51556;SDS011;38766;53.194;5.532;2023-07-22T03:18:08;8.07;;;3.72;;
51556;SDS011;38766;53.194;5.532;2023-07-22T03:20:38;6.18;;;4.13;;
51556;SDS011;38766;53.194;5.532;2023-07-22T03:23:05;6.50;;;3.67;;
51556;SDS011;38766;53.194;5.532;2023-07-22T03:25:31;6.18;;;3.78;;
51556;SDS011;38766;53.194;5.532;2023-07-22T03:28:02;9.30;;;4.38;;
51556;SDS011;38766;53.194;5.532;2023-07-22T03:30:29;7.07;;;3.47;;
51556;SDS011;38766;53.194;5.532;2023-07-22T03:32:55;6.03;;;4.00;;
51556;SDS011;38766;53.194;5.532;2023-07-22T03:35:21;6.68;;;3.88;;
51556;SDS011;38766;53.194;5.532;2023-07-22T03:37:47;6.10;;;3.45;;
51556;SDS011;38766;53.194;5.532;2023-07-22T03:40:12;7.03;;;4.30;;
51556;SDS011;38766;53.194;5.532;2023-07-22T03:42:56;8.25;;;4.60;;
51556;SDS011;38766;53.194;5.532;2023-07-22T03:45:25;11.45;;;5.30;;
51556;SDS011;38766;53.194;5.532;2023-07-22T03:47:51;11.07;;;5.90;;
51556;SDS011;38766;53.194;5.532;2023-07-22T03:50:26;10.90;;;6.13;;
51556;SDS011;38766;53.194;5.532;2023-07-22T03:52:52;11.10;;;6.03;;
51556;SDS011;38766;53.194;5.532;2023-07-22T03:55:18;9.38;;;6.07;;
51556;SDS011;38766;53.194;5.532;2023-07-22T03:57:47;11.23;;;6.93;;
51556;SDS011;38766;53.194;5.532;2023-07-22T04:00:12;13.68;;;6.55;;
51556;SDS011;38766;53.194;5.532;2023-07-22T04:02:38;12.43;;;6.88;;
51556;SDS011;38766;53.194;5.532;2023-07-22T04:05:04;10.30;;;7.13;;
51556;SDS011;38766;53.194;5.532;2023-07-22T04:07:30;12.38;;;6.97;;
51556;SDS011;38766;53.194;5.532;2023-07-22T04:09:55;12.82;;;7.70;;
51556;SDS011;38766;53.194;5.532;2023-07-22T04:12:22;14.25;;;7.97;;
51556;SDS011;38766;53.194;5.532;2023-07-22T04:14:48;12.80;;;7.57;;
51556;SDS011;38766;53.194;5.532;2023-07-22T04:17:13;13.18;;;8.10;;
51556;SDS011;38766;53.194;5.532;2023-07-22T04:19:40;13.60;;;8.52;;
51556;SDS011;38766;53.194;5.532;2023-07-22T04:22:07;14.40;;;9.40;;
51556;SDS011;38766;53.194;5.532;2023-07-22T04:24:32;19.10;;;9.13;;
51556;SDS011;38766;53.194;5.532;2023-07-22T04:26:58;14.30;;;8.85;;
51556;SDS011;38766;53.194;5.532;2023-07-22T04:29:25;16.88;;;9.27;;
51556;SDS011;38766;53.194;5.532;2023-07-22T04:31:51;13.20;;;8.57;;
51556;SDS011;38766;53.194;5.532;2023-07-22T04:34:20;13.05;;;8.13;;
51556;SDS011;38766;53.194;5.532;2023-07-22T04:36:45;16.85;;;9.02;;
51556;SDS011;38766;53.194;5.532;2023-07-22T04:39:11;13.40;;;8.57;;
51556;SDS011;38766;53.194;5.532;2023-07-22T04:41:37;12.43;;;9.00;;
51556;SDS011;38766;53.194;5.532;2023-07-22T04:44:03;12.63;;;8.05;;
51556;SDS011;38766;53.194;5.532;2023-07-22T04:46:29;15.80;;;8.88;;
51556;SDS011;38766;53.194;5.532;2023-07-22T04:48:55;13.50;;;7.80;;
51556;SDS011;38766;53.194;5.532;2023-07-22T04:51:23;13.38;;;8.40;;
51556;SDS011;38766;53.194;5.532;2023-07-22T04:53:51;14.90;;;8.27;;
51556;SDS011;38766;53.194;5.532;2023-07-22T04:56:17;12.27;;;7.78;;
51556;SDS011;38766;53.194;5.532;2023-07-22T04:58:43;11.60;;;7.88;;
51556;SDS011;38766;53.194;5.532;2023-07-22T05:01:08;11.25;;;7.70;;
51556;SDS011;38766;53.194;5.532;2023-07-22T05:03:34;9.35;;;7.00;;
51556;SDS011;38766;53.194;5.532;2023-07-22T05:06:00;9.70;;;7.20;;
51556;SDS011;38766;53.194;5.532;2023-07-22T05:08:26;11.82;;;7.63;;
51556;SDS011;38766;53.194;5.532;2023-07-22T05:10:52;12.30;;;7.35;;
51556;SDS011;38766;53.194;5.532;2023-07-22T05:13:18;9.43;;;7.00;;
51556;SDS011;38766;53.194;5.532;2023-07-22T05:15:44;10.38;;;7.43;;
51556;SDS011;38766;53.194;5.532;2023-07-22T05:18:09;11.90;;;7.18;;
51556;SDS011;38766;53.194;5.532;2023-07-22T05:20:35;11.82;;;8.30;;
51556;SDS011;38766;53.194;5.532;2023-07-22T05:23:03;13.27;;;7.78;;
51556;SDS011;38766;53.194;5.532;2023-07-22T05:25:28;11.50;;;7.43;;
51556;SDS011;38766;53.194;5.532;2023-07-22T05:27:54;11.77;;;7.15;;
51556;SDS011;38766;53.194;5.532;2023-07-22T05:30:20;11.15;;;6.68;;
51556;SDS011;38766;53.194;5.532;2023-07-22T05:32:45;11.73;;;6.47;;
51556;SDS011;38766;53.194;5.532;2023-07-22T05:35:11;10.25;;;7.25;;
51556;SDS011;38766;53.194;5.532;2023-07-22T05:37:37;11.88;;;6.80;;
51556;SDS011;38766;53.194;5.532;2023-07-22T05:40:02;11.25;;;6.82;;
51556;SDS011;38766;53.194;5.532;2023-07-22T05:42:38;12.65;;;7.82;;
51556;SDS011;38766;53.194;5.532;2023-07-22T05:45:03;11.57;;;7.97;;
51556;SDS011;38766;53.194;5.532;2023-07-22T05:47:29;12.25;;;7.53;;
51556;SDS011;38766;53.194;5.532;2023-07-22T05:49:55;14.68;;;8.48;;
51556;SDS011;38766;53.194;5.532;2023-07-22T05:52:21;12.10;;;7.75;;
51556;SDS011;38766;53.194;5.532;2023-07-22T05:54:47;13.43;;;8.13;;
51556;SDS011;38766;53.194;5.532;2023-07-22T05:57:12;12.73;;;8.63;;
51556;SDS011;38766;53.194;5.532;2023-07-22T05:59:38;10.98;;;7.80;;
51556;SDS011;38766;53.194;5.532;2023-07-22T06:02:05;11.07;;;7.85;;
51556;SDS011;38766;53.194;5.532;2023-07-22T06:04:31;12.77;;;7.90;;
51556;SDS011;38766;53.194;5.532;2023-07-22T06:06:57;10.82;;;8.05;;
51556;SDS011;38766;53.194;5.532;2023-07-22T06:09:22;13.63;;;7.72;;
51556;SDS011;38766;53.194;5.532;2023-07-22T06:11:48;11.90;;;8.30;;
51556;SDS011;38766;53.194;5.532;2023-07-22T06:14:14;12.63;;;8.52;;
51556;SDS011;38766;53.194;5.532;2023-07-22T06:16:39;13.45;;;7.97;;
51556;SDS011;38766;53.194;5.532;2023-07-22T06:19:05;12.00;;;8.23;;
51556;SDS011;38766;53.194;5.532;2023-07-22T06:21:31;13.95;;;9.40;;
51556;SDS011;38766;53.194;5.532;2023-07-22T06:23:56;14.10;;;8.75;;
51556;SDS011;38766;53.194;5.532;2023-07-22T06:26:22;15.02;;;8.85;;
51556;SDS011;38766;53.194;5.532;2023-07-22T06:28:47;15.80;;;8.90;;
51556;SDS011;38766;53.194;5.532;2023-07-22T06:31:13;14.45;;;9.70;;
51556;SDS011;38766;53.194;5.532;2023-07-22T06:33:39;15.60;;;9.68;;
51556;SDS011;38766;53.194;5.532;2023-07-22T06:36:05;17.27;;;9.93;;
51556;SDS011;38766;53.194;5.532;2023-07-22T06:38:30;14.77;;;9.25;;
51556;SDS011;38766;53.194;5.532;2023-07-22T06:40:56;13.25;;;9.65;;
51556;SDS011;38766;53.194;5.532;2023-07-22T06:43:22;15.25;;;9.15;;
51556;SDS011;38766;53.194;5.532;2023-07-22T06:45:48;16.45;;;9.52;;
51556;SDS011;38766;53.194;5.532;2023-07-22T06:48:14;15.57;;;9.60;;
51556;SDS011;38766;53.194;5.532;2023-07-22T06:50:39;14.20;;;9.75;;
51556;SDS011;38766;53.194;5.532;2023-07-22T06:53:05;16.60;;;9.38;;
51556;SDS011;38766;53.194;5.532;2023-07-22T06:55:31;14.80;;;8.80;;
51556;SDS011;38766;53.194;5.532;2023-07-22T06:57:57;16.90;;;9.25;;
51556;SDS011;38766;53.194;5.532;2023-07-22T07:00:22;19.50;;;9.38;;
51556;SDS011;38766;53.194;5.532;2023-07-22T07:02:48;18.17;;;11.05;;
51556;SDS011;38766;53.194;5.532;2023-07-22T07:05:14;15.63;;;9.80;;
51556;SDS011;38766;53.194;5.532;2023-07-22T07:07:42;15.98;;;9.80;;
51556;SDS011;38766;53.194;5.532;2023-07-22T07:10:07;14.07;;;9.30;;
51556;SDS011;38766;53.194;5.532;2023-07-22T07:12:33;17.45;;;9.52;;
51556;SDS011;38766;53.194;5.532;2023-07-22T07:14:59;14.70;;;9.15;;
51556;SDS011;38766;53.194;5.532;2023-07-22T07:17:25;16.77;;;10.07;;
51556;SDS011;38766;53.194;5.532;2023-07-22T07:19:51;15.80;;;9.40;;
51556;SDS011;38766;53.194;5.532;2023-07-22T07:22:16;16.52;;;9.77;;
51556;SDS011;38766;53.194;5.532;2023-07-22T07:24:44;15.32;;;9.60;;
51556;SDS011;38766;53.194;5.532;2023-07-22T07:27:10;17.92;;;10.50;;
51556;SDS011;38766;53.194;5.532;2023-07-22T07:29:35;15.93;;;9.25;;
51556;SDS011;38766;53.194;5.532;2023-07-22T07:32:01;16.00;;;9.68;;
51556;SDS011;38766;53.194;5.532;2023-07-22T07:34:30;15.18;;;9.50;;
51556;SDS011;38766;53.194;5.532;2023-07-22T07:36:56;14.63;;;8.55;;
51556;SDS011;38766;53.194;5.532;2023-07-22T07:39:21;12.45;;;8.32;;
51556;SDS011;38766;53.194;5.532;2023-07-22T07:41:47;7.90;;;6.40;;
51556;SDS011;38766;53.194;5.532;2023-07-22T07:44:13;11.25;;;6.03;;
51556;SDS011;38766;53.194;5.532;2023-07-22T07:46:38;8.82;;;6.03;;
51556;SDS011;38766;53.194;5.532;2023-07-22T07:49:04;7.40;;;5.22;;
51556;SDS011;38766;53.194;5.532;2023-07-22T07:51:31;7.05;;;5.03;;
51556;SDS011;38766;53.194;5.532;2023-07-22T07:53:57;8.82;;;4.97;;
51556;SDS011;38766;53.194;5.532;2023-07-22T07:56:23;6.68;;;5.18;;
51556;SDS011;38766;53.194;5.532;2023-07-22T07:58:50;7.07;;;4.68;;
51556;SDS011;38766;53.194;5.532;2023-07-22T08:01:18;9.00;;;5.20;;
51556;SDS011;38766;53.194;5.532;2023-07-22T08:03:43;9.68;;;6.65;;
51556;SDS011;38766;53.194;5.532;2023-07-22T08:06:10;4.60;;;3.75;;
51556;SDS011;38766;53.194;5.532;2023-07-22T08:08:36;7.40;;;4.63;;
51556;SDS011;38766;53.194;5.532;2023-07-22T08:11:06;7.97;;;3.97;;
51556;SDS011;38766;53.194;5.532;2023-07-22T08:13:32;6.75;;;4.93;;
51556;SDS011;38766;53.194;5.532;2023-07-22T08:15:59;7.43;;;4.95;;
51556;SDS011;38766;53.194;5.532;2023-07-22T08:18:29;6.50;;;4.70;;
51556;SDS011;38766;53.194;5.532;2023-07-22T08:20:55;6.30;;;4.55;;
51556;SDS011;38766;53.194;5.532;2023-07-22T08:23:21;7.60;;;5.07;;
51556;SDS011;38766;53.194;5.532;2023-07-22T08:25:47;7.10;;;4.38;;
51556;SDS011;38766;53.194;5.532;2023-07-22T08:28:13;7.35;;;4.50;;
51556;SDS011;38766;53.194;5.532;2023-07-22T08:30:39;7.43;;;4.53;;
51556;SDS011;38766;53.194;5.532;2023-07-22T08:33:05;8.45;;;4.55;;
51556;SDS011;38766;53.194;5.532;2023-07-22T08:35:33;9.55;;;4.60;;
51556;SDS011;38766;53.194;5.532;2023-07-22T08:38:00;26.15;;;17.75;;
51556;SDS011;38766;53.194;5.532;2023-07-22T08:40:27;9.80;;;4.95;;
51556;SDS011;38766;53.194;5.532;2023-07-22T08:42:57;5.93;;;4.18;;
51556;SDS011;38766;53.194;5.532;2023-07-22T08:45:24;10.43;;;5.22;;
51556;SDS011;38766;53.194;5.532;2023-07-22T08:47:54;13.73;;;6.00;;
51556;SDS011;38766;53.194;5.532;2023-07-22T08:50:23;12.73;;;5.45;;
51556;SDS011;38766;53.194;5.532;2023-07-22T08:52:54;10.02;;;4.55;;
51556;SDS011;38766;53.194;5.532;2023-07-22T08:55:20;9.40;;;4.85;;
51556;SDS011;38766;53.194;5.532;2023-07-22T08:57:48;8.73;;;4.60;;
51556;SDS011;38766;53.194;5.532;2023-07-22T09:00:15;7.35;;;4.50;;
51556;SDS011;38766;53.194;5.532;2023-07-22T09:02:41;7.32;;;4.60;;
51556;SDS011;38766;53.194;5.532;2023-07-22T09:05:11;6.70;;;4.65;;
51556;SDS011;38766;53.194;5.532;2023-07-22T09:07:37;8.07;;;4.78;;
51556;SDS011;38766;53.194;5.532;2023-07-22T09:10:04;10.13;;;5.35;;
51556;SDS011;38766;53.194;5.532;2023-07-22T09:12:32;7.85;;;4.53;;
51556;SDS011;38766;53.194;5.532;2023-07-22T09:15:06;9.27;;;5.28;;
51556;SDS011;38766;53.194;5.532;2023-07-22T09:17:38;8.00;;;5.78;;
51556;SDS011;38766;53.194;5.532;2023-07-22T09:20:04;8.23;;;5.13;;
51556;SDS011;38766;53.194;5.532;2023-07-22T09:22:31;9.15;;;5.45;;
51556;SDS011;38766;53.194;5.532;2023-07-22T09:25:17;8.73;;;5.78;;
51556;SDS011;38766;53.194;5.532;2023-07-22T09:27:47;8.00;;;5.25;;
51556;SDS011;38766;53.194;5.532;2023-07-22T09:30:33;10.23;;;6.07;;
51556;SDS011;38766;53.194;5.532;2023-07-22T09:33:01;9.25;;;6.15;;
51556;SDS011;38766;53.194;5.532;2023-07-22T09:35:29;10.52;;;6.55;;
51556;SDS011;38766;53.194;5.532;2023-07-22T09:38:11;9.60;;;6.10;;
51556;SDS011;38766;53.194;5.532;2023-07-22T09:40:39;10.63;;;5.85;;
51556;SDS011;38766;53.194;5.532;2023-07-22T09:43:08;9.88;;;6.10;;
51556;SDS011;38766;53.194;5.532;2023-07-22T09:45:35;7.65;;;5.35;;
51556;SDS011;38766;53.194;5.532;2023-07-22T09:48:03;9.57;;;6.55;;
51556;SDS011;38766;53.194;5.532;2023-07-22T09:50:29;10.02;;;6.40;;
51556;SDS011;38766;53.194;5.532;2023-07-22T09:52:55;7.75;;;6.18;;
51556;SDS011;38766;53.194;5.532;2023-07-22T09:55:29;8.35;;;5.70;;
51556;SDS011;38766;53.194;5.532;2023-07-22T09:57:56;11.55;;;6.32;;
51556;SDS011;38766;53.194;5.532;2023-07-22T10:00:28;9.43;;;5.97;;
51556;SDS011;38766;53.194;5.532;2023-07-22T10:02:56;7.97;;;5.88;;
51556;SDS011;38766;53.194;5.532;2023-07-22T10:05:23;8.13;;;5.90;;
51556;SDS011;38766;53.194;5.532;2023-07-22T10:07:54;9.30;;;6.40;;
51556;SDS011;38766;53.194;5.532;2023-07-22T10:10:40;11.52;;;6.20;;
51556;SDS011;38766;53.194;5.532;2023-07-22T10:13:12;6.82;;;5.78;;
51556;SDS011;38766;53.194;5.532;2023-07-22T10:15:37;8.60;;;6.55;;
51556;SDS011;38766;53.194;5.532;2023-07-22T10:18:04;9.43;;;6.15;;
51556;SDS011;38766;53.194;5.532;2023-07-22T10:20:30;11.40;;;6.68;;
51556;SDS011;38766;53.194;5.532;2023-07-22T10:22:59;11.20;;;6.75;;
51556;SDS011;38766;53.194;5.532;2023-07-22T10:25:26;8.63;;;6.18;;
51556;SDS011;38766;53.194;5.532;2023-07-22T10:27:52;9.73;;;6.38;;
51556;SDS011;38766;53.194;5.532;2023-07-22T10:30:18;11.48;;;6.47;;
51556;SDS011;38766;53.194;5.532;2023-07-22T10:35:34;9.73;;;6.70;;
51556;SDS011;38766;53.194;5.532;2023-07-22T10:38:09;12.60;;;7.40;;
51556;SDS011;38766;53.194;5.532;2023-07-22T10:40:45;12.40;;;7.32;;
51556;SDS011;38766;53.194;5.532;2023-07-22T10:43:16;11.70;;;7.25;;
51556;SDS011;38766;53.194;5.532;2023-07-22T10:45:54;10.02;;;6.78;;
51556;SDS011;38766;53.194;5.532;2023-07-22T10:48:23;11.07;;;8.15;;
51556;SDS011;38766;53.194;5.532;2023-07-22T10:51:00;13.40;;;7.68;;
51556;SDS011;38766;53.194;5.532;2023-07-22T10:53:32;8.70;;;7.03;;
51556;SDS011;38766;53.194;5.532;2023-07-22T10:58:29;9.43;;;7.43;;
51556;SDS011;38766;53.194;5.532;2023-07-22T11:01:02;10.98;;;7.63;;
51556;SDS011;38766;53.194;5.532;2023-07-22T11:06:33;11.43;;;8.00;;
51556;SDS011;38766;53.194;5.532;2023-07-22T11:09:00;12.85;;;8.43;;
51556;SDS011;38766;53.194;5.532;2023-07-22T11:11:39;12.40;;;7.53;;
51556;SDS011;38766;53.194;5.532;2023-07-22T11:14:15;11.18;;;7.28;;
51556;SDS011;38766;53.194;5.532;2023-07-22T11:16:43;9.95;;;6.72;;
51556;SDS011;38766;53.194;5.532;2023-07-22T11:19:10;11.10;;;7.75;;
51556;SDS011;38766;53.194;5.532;2023-07-22T11:21:39;11.50;;;8.10;;
51556;SDS011;38766;53.194;5.532;2023-07-22T11:24:05;10.55;;;8.27;;
51556;SDS011;38766;53.194;5.532;2023-07-22T11:26:32;10.77;;;7.93;;
51556;SDS011;38766;53.194;5.532;2023-07-22T11:29:02;13.65;;;8.45;;
51556;SDS011;38766;53.194;5.532;2023-07-22T11:31:36;11.82;;;7.93;;
51556;SDS011;38766;53.194;5.532;2023-07-22T11:34:07;10.95;;;7.28;;
51556;SDS011;38766;53.194;5.532;2023-07-22T11:36:34;10.73;;;7.47;;
51556;SDS011;38766;53.194;5.532;2023-07-22T11:39:04;12.15;;;6.97;;
51556;SDS011;38766;53.194;5.532;2023-07-22T11:41:38;12.82;;;7.75;;
51556;SDS011;38766;53.194;5.532;2023-07-22T11:44:06;10.60;;;7.57;;
51556;SDS011;38766;53.194;5.532;2023-07-22T11:49:28;9.52;;;7.13;;
51556;SDS011;38766;53.194;5.532;2023-07-22T11:52:00;12.80;;;7.80;;
51556;SDS011;38766;53.194;5.532;2023-07-22T11:54:27;8.63;;;5.97;;
51556;SDS011;38766;53.194;5.532;2023-07-22T11:56:54;9.63;;;5.32;;
51556;SDS011;38766;53.194;5.532;2023-07-22T11:59:33;8.45;;;5.18;;
51556;SDS011;38766;53.194;5.532;2023-07-22T12:02:03;10.48;;;4.95;;
51556;SDS011;38766;53.194;5.532;2023-07-22T12:04:32;6.60;;;4.22;;
51556;SDS011;38766;53.194;5.532;2023-07-22T12:07:01;11.18;;;5.07;;
51556;SDS011;38766;53.194;5.532;2023-07-22T12:09:29;7.30;;;4.30;;
51556;SDS011;38766;53.194;5.532;2023-07-22T12:11:55;9.85;;;4.25;;
51556;SDS011;38766;53.194;5.532;2023-07-22T12:14:23;7.65;;;4.30;;
51556;SDS011;38766;53.194;5.532;2023-07-22T12:16:52;10.80;;;4.40;;
51556;SDS011;38766;53.194;5.532;2023-07-22T12:19:24;4.93;;;3.20;;
51556;SDS011;38766;53.194;5.532;2023-07-22T12:21:53;6.20;;;3.30;;
51556;SDS011;38766;53.194;5.532;2023-07-22T12:24:18;6.25;;;3.13;;
51556;SDS011;38766;53.194;5.532;2023-07-22T12:26:44;6.03;;;3.40;;
51556;SDS011;38766;53.194;5.532;2023-07-22T12:29:09;6.40;;;2.78;;
51556;SDS011;38766;53.194;5.532;2023-07-22T12:31:36;5.93;;;3.05;;
51556;SDS011;38766;53.194;5.532;2023-07-22T12:34:01;4.35;;;3.47;;
51556;SDS011;38766;53.194;5.532;2023-07-22T12:36:27;6.57;;;3.80;;
51556;SDS011;38766;53.194;5.532;2023-07-22T12:38:53;7.50;;;3.45;;
51556;SDS011;38766;53.194;5.532;2023-07-22T12:41:18;12.23;;;3.70;;
51556;SDS011;38766;53.194;5.532;2023-07-22T12:43:44;7.65;;;3.30;;
51556;SDS011;38766;53.194;5.532;2023-07-22T12:46:10;5.00;;;3.47;;
51556;SDS011;38766;53.194;5.532;2023-07-22T12:48:35;5.05;;;3.13;;
51556;SDS011;38766;53.194;5.532;2023-07-22T12:51:01;6.28;;;3.63;;
51556;SDS011;38766;53.194;5.532;2023-07-22T12:53:27;6.20;;;3.85;;
51556;SDS011;38766;53.194;5.532;2023-07-22T12:55:53;7.07;;;3.30;;
51556;SDS011;38766;53.194;5.532;2023-07-22T12:58:19;5.10;;;3.08;;
51556;SDS011;38766;53.194;5.532;2023-07-22T13:00:44;5.57;;;3.42;;
51556;SDS011;38766;53.194;5.532;2023-07-22T13:03:10;7.18;;;3.80;;
51556;SDS011;38766;53.194;5.532;2023-07-22T13:05:35;6.28;;;3.22;;
51556;SDS011;38766;53.194;5.532;2023-07-22T13:08:01;8.90;;;4.13;;
51556;SDS011;38766;53.194;5.532;2023-07-22T13:10:27;7.97;;;3.95;;
51556;SDS011;38766;53.194;5.532;2023-07-22T13:12:54;9.95;;;4.28;;
51556;SDS011;38766;53.194;5.532;2023-07-22T13:15:20;8.48;;;4.68;;
51556;SDS011;38766;53.194;5.532;2023-07-22T13:17:46;10.93;;;4.18;;
51556;SDS011;38766;53.194;5.532;2023-07-22T13:20:11;6.10;;;4.05;;
51556;SDS011;38766;53.194;5.532;2023-07-22T13:22:37;7.63;;;4.53;;
51556;SDS011;38766;53.194;5.532;2023-07-22T13:25:04;10.98;;;4.60;;
51556;SDS011;38766;53.194;5.532;2023-07-22T13:27:30;9.07;;;4.72;;
51556;SDS011;38766;53.194;5.532;2023-07-22T13:29:56;7.82;;;4.80;;
51556;SDS011;38766;53.194;5.532;2023-07-22T13:32:22;9.02;;;4.95;;
51556;SDS011;38766;53.194;5.532;2023-07-22T13:34:48;7.05;;;5.00;;
51556;SDS011;38766;53.194;5.532;2023-07-22T13:37:14;11.70;;;5.00;;
51556;SDS011;38766;53.194;5.532;2023-07-22T13:39:39;8.10;;;4.60;;
51556;SDS011;38766;53.194;5.532;2023-07-22T13:42:05;13.38;;;4.78;;
51556;SDS011;38766;53.194;5.532;2023-07-22T13:44:31;12.75;;;5.22;;
51556;SDS011;38766;53.194;5.532;2023-07-22T13:46:56;11.52;;;5.07;;
51556;SDS011;38766;53.194;5.532;2023-07-22T13:49:22;13.13;;;5.25;;
51556;SDS011;38766;53.194;5.532;2023-07-22T13:51:48;8.60;;;5.30;;
51556;SDS011;38766;53.194;5.532;2023-07-22T13:54:13;10.80;;;4.95;;
51556;SDS011;38766;53.194;5.532;2023-07-22T13:56:39;10.85;;;5.22;;
51556;SDS011;38766;53.194;5.532;2023-07-22T13:59:05;9.82;;;5.43;;
51556;SDS011;38766;53.194;5.532;2023-07-22T14:01:31;10.35;;;5.07;;
51556;SDS011;38766;53.194;5.532;2023-07-22T14:03:56;9.05;;;4.90;;
51556;SDS011;38766;53.194;5.532;2023-07-22T14:06:22;12.18;;;5.57;;
51556;SDS011;38766;53.194;5.532;2023-07-22T14:08:48;10.25;;;5.95;;
51556;SDS011;38766;53.194;5.532;2023-07-22T14:11:14;7.35;;;4.65;;
51556;SDS011;38766;53.194;5.532;2023-07-22T14:13:40;10.13;;;5.10;;
51556;SDS011;38766;53.194;5.532;2023-07-22T14:16:05;5.95;;;3.90;;
51556;SDS011;38766;53.194;5.532;2023-07-22T14:18:31;9.70;;;4.18;;
51556;SDS011;38766;53.194;5.532;2023-07-22T14:20:58;11.88;;;3.83;;
51556;SDS011;38766;53.194;5.532;2023-07-22T14:23:24;6.80;;;3.97;;
51556;SDS011;38766;53.194;5.532;2023-07-22T14:25:49;8.02;;;3.80;;
51556;SDS011;38766;53.194;5.532;2023-07-22T14:28:15;7.80;;;3.53;;
51556;SDS011;38766;53.194;5.532;2023-07-22T14:30:41;5.53;;;3.55;;
51556;SDS011;38766;53.194;5.532;2023-07-22T14:33:06;7.47;;;3.47;;
51556;SDS011;38766;53.194;5.532;2023-07-22T14:35:32;5.80;;;3.30;;
51556;SDS011;38766;53.194;5.532;2023-07-22T14:37:58;5.93;;;3.55;;
51556;SDS011;38766;53.194;5.532;2023-07-22T14:40:25;8.38;;;3.30;;
51556;SDS011;38766;53.194;5.532;2023-07-22T14:42:50;7.53;;;3.25;;
51556;SDS011;38766;53.194;5.532;2023-07-22T14:45:16;11.27;;;3.65;;
51556;SDS011;38766;53.194;5.532;2023-07-22T14:47:42;10.15;;;3.60;;
51556;SDS011;38766;53.194;5.532;2023-07-22T14:50:08;6.55;;;3.58;;
51556;SDS011;38766;53.194;5.532;2023-07-22T14:52:34;7.32;;;3.70;;